Latest Coastal Weather Observations for Dum In Mirrie

IDD60701

Issued at 9:11 am CST Friday 30 September 2016 (issued every 10 minutes, with the page automatically refreshed every 10 minutes)

About coastal observations | Map of coastal stations | Coastal observations for NT | Marine services | Other Formats
Station Details ID: 014277 Name: DUM IN MIRRIE AIRSTRIP Lat: -12.63 Lon: 130.37 Height: 3.5 m
Data from the previous 72 hours. | See also: Recent months at Dum In Mirrie
Date/Time
CST
Temp
°C
Wind Pressure Rain since
9am
mm
Weather Cloud Vis
km
Sea
Height
m
Swell
Dir  Spd
kts
Gust
kts
hPa Trend Height
m
Period
s
Dir
30/09:00am 30.9 SSW 2 4 1010.1 - 0.0 - - - - - - -
30/08:30am 30.0 SE 2 4 1009.9 - 0.0 - - - - - - -
30/08:00am 29.0 SSE 2 5 1009.6 - 0.0 - - - - - - -
30/07:30am 29.0 SSW 2 4 1009.3 - 0.0 - - - - - - -
30/07:00am 28.4 W 1 3 1008.8 - 0.0 - - - - - - -
30/06:30am 28.1 WNW 2 3 1008.4 - 0.0 - - - - - - -
30/06:00am 28.1 NW 1 2 1008.1 - 0.0 - - - - - - -
30/05:30am 27.9 NW 2 3 1007.7 - 0.0 - - - - - - -
30/05:00am 28.2 NNW 3 5 1007.4 - 0.0 - - - - - - -
30/04:30am 28.3 NNW 4 7 1007.0 - 0.0 - - - - - - -
30/04:00am 28.3 NNW 4 7 1007.1 - 0.0 - - - - - - -
30/03:30am 28.4 NNW 4 8 1007.0 - 0.0 - - - - - - -
30/03:00am 28.5 NNW 4 7 1007.1 - 0.0 - - - - - - -
30/02:30am 28.5 NNW 4 6 1007.2 - 0.0 - - - - - - -
30/02:00am 28.4 NNW 4 7 1007.6 - 0.0 - - - - - - -
30/01:30am 28.4 NNW 4 7 1007.7 - 0.0 - - - - - - -
30/01:00am 28.5 NNW 4 7 1008.3 - 0.0 - - - - - - -
30/12:30am 28.6 NNW 4 7 1008.6 - 0.0 - - - - - - -
30/12:00am 28.6 NNW 4 6 1008.9 - 0.0 - - - - - - -
 
Date/Time
CST
Temp
°C
Wind Pressure Rain since
9am
mm
Weather Cloud Vis
km
Sea
Height
m
Swell
Dir  Spd
kts
Gust
kts
hPa Trend Height
m
Period
s
Dir
29/11:30pm 28.6 NNW 3 6 1009.0 - 0.0 - - - - - - -
29/11:00pm 28.7 NNW 3 6 1009.1 - 0.0 - - - - - - -
29/10:30pm 28.9 NW 3 5 1009.0 - 0.0 - - - - - - -
29/10:00pm 29.2 NW 3 5 1008.7 - 0.0 - - - - - - -
29/09:30pm 29.2 NW 4 7 1008.3 - 0.0 - - - - - - -
29/09:00pm 29.3 NW 4 8 1008.3 - 0.0 - - - - - - -
29/08:30pm 29.5 WNW 4 8 1008.0 - 0.0 - - - - - - -
29/08:00pm 29.6 NW 4 8 1007.6 - 0.0 - - - - - - -
29/07:30pm 29.6 WNW 3 6 1007.2 - 0.0 - - - - - - -
29/07:00pm 29.8 WNW 4 7 1006.9 - 0.0 - - - - - - -
29/06:30pm 30.1 WNW 4 7 1006.7 - 0.0 - - - - - - -
29/06:00pm 30.9 W 4 9 1006.3 - 0.0 - - - - - - -
29/05:30pm 31.2 W 7 11 1006.2 - 0.0 - - - - - - -
29/05:00pm 31.4 W 8 13 1006.4 - 0.0 - - - - - - -
29/04:30pm 30.9 W 10 15 1006.1 - 0.0 - - - - - - -
29/04:00pm 31.2 WSW 11 15 1005.9 - 0.0 - - - - - - -
29/03:30pm 31.5 W 9 13 1006.4 - 0.0 - - - - - - -
29/03:00pm 32.0 WSW 7 10 1007.0 - 0.0 - - - - - - -
29/02:30pm 31.8 W 9 13 1007.2 - 0.0 - - - - - - -
29/02:00pm 31.5 W 8 11 1007.6 - 0.0 - - - - - - -
29/01:30pm 31.3 WSW 10 14 1007.8 - 0.0 - - - - - - -
29/01:00pm 31.9 W 8 13 1008.4 - 0.0 - - - - - - -
29/12:30pm 32.2 WSW 8 12 1009.0 - 0.0 - - - - - - -
29/12:00pm 31.9 WSW 7 10 1009.2 - 0.0 - - - - - - -
29/11:30am 31.6 WSW 6 9 1009.8 - 0.0 - - - - - - -
29/11:00am 31.5 WSW 5 7 1010.2 - 0.0 - - - - - - -
29/10:30am 32.1 SW 5 8 1010.2 - 0.0 - - - - - - -
29/10:00am 31.4 SW 5 8 1010.2 - 0.0 - - - - - - -
29/09:30am 31.3 WSW 4 7 1010.2 - 0.0 - - - - - - -
29/09:00am 31.2 SW 4 6 1010.1 - 0.0 - - - - - - -
29/08:30am 30.2 WSW 4 7 1009.9 - 0.0 - - - - - - -
29/08:00am 29.6 W 2 4 1009.4 - 0.0 - - - - - - -
29/07:30am 29.3 W 2 4 1009.0 - 0.0 - - - - - - -
29/07:00am 28.4 W 2 6 1008.7 - 0.0 - - - - - - -
29/06:30am 27.8 WNW 2 4 1008.2 - 0.0 - - - - - - -
29/06:00am 27.4 NW 2 3 1008.0 - 0.0 - - - - - - -
29/05:30am 27.5 NNW 2 3 1007.5 - 0.0 - - - - - - -
29/05:00am 27.4 NNW 2 3 1007.2 - 0.0 - - - - - - -
29/04:30am 27.1 NNW 2 3 1007.1 - 0.0 - - - - - - -
29/04:00am 26.8 NNW 2 3 1007.0 - 0.0 - - - - - - -
29/03:30am 26.6 NNW 2 3 1007.3 - 0.0 - - - - - - -
29/03:00am 26.2 NW 2 3 1007.4 - 0.0 - - - - - - -
29/02:30am 26.1 CALM 0 0 1007.8 - 0.0 - - - - - - -
29/02:00am 26.2 NNW 1 2 1008.2 - 0.0 - - - - - - -
29/01:30am 25.6 NNW 2 3 1008.6 - 0.0 - - - - - - -
29/01:00am 25.4 CALM 0 0 1008.8 - 0.0 - - - - - - -
29/12:30am 25.8 CALM 0 0 1009.3 - 0.0 - - - - - - -
29/12:00am 26.2 CALM 0 0 1009.5 - 0.0 - - - - - - -
 
Date/Time
CST
Temp
°C
Wind Pressure Rain since
9am
mm
Weather Cloud Vis
km
Sea
Height
m
Swell
Dir  Spd
kts
Gust
kts
hPa Trend Height
m
Period
s
Dir
28/11:30pm 26.7 CALM 0 0 1009.7 - 0.0 - - - - - - -
28/11:00pm 27.7 CALM 0 0 1009.7 - 0.0 - - - - - - -
28/10:30pm 28.6 CALM 0 0 1009.6 - 0.0 - - - - - - -
28/10:00pm 29.1 SW 3 5 1009.5 - 0.0 - - - - - - -
28/09:30pm 29.2 SW 3 7 1009.6 - 0.0 - - - - - - -
28/09:00pm 29.3 SSW 4 7 1009.4 - 0.0 - - - - - - -
28/08:30pm 29.3 SSW 3 5 1009.1 - 0.0 - - - - - - -
28/08:00pm 29.5 SW 4 7 1008.7 - 0.0 - - - - - - -
28/07:30pm 29.6 SW 4 7 1008.4 - 0.0 - - - - - - -
28/07:00pm 29.6 SW 4 8 1008.3 - 0.0 - - - - - - -
28/06:30pm 29.8 SW 3 6 1008.1 - 0.0 - - - - - - -
28/06:00pm 30.1 SW 3 7 1007.9 - 0.0 - - - - - - -
28/05:30pm 30.4 WSW 3 5 1007.4 - 0.0 - - - - - - -
28/05:00pm 31.7 WSW 4 6 1007.5 - 0.0 - - - - - - -
28/04:30pm 31.1 WSW 5 9 1007.5 - 0.0 - - - - - - -
28/04:00pm 31.6 W 5 9 1007.7 - 0.0 - - - - - - -
28/03:30pm 32.0 W 6 10 1008.0 - 0.0 - - - - - - -
28/03:00pm 31.7 W 6 9 1008.3 - 0.0 - - - - - - -
28/02:30pm 31.9 WNW 5 9 1008.9 - 0.0 - - - - - - -
28/02:00pm 31.9 W 6 10 1009.5 - 0.0 - - - - - - -
28/01:30pm 32.6 WNW 6 9 1009.8 - 0.0 - - - - - - -
28/01:00pm 32.3 WNW 6 9 1010.3 - 0.0 - - - - - - -
28/12:30pm 32.3 WNW 5 8 1010.7 - 0.0 - - - - - - -
28/12:00pm 32.3 WNW 5 8 1011.1 - 0.0 - - - - - - -
28/11:30am 31.9 WNW 5 8 1011.3 - 0.0 - - - - - - -
28/11:00am 31.7 WNW 5 9 1011.6 - 0.0 - - - - - - -
28/10:30am 31.4 NW 5 8 1011.8 - 0.0 - - - - - - -
28/10:00am 31.2 NW 5 8 1012.0 - 0.0 - - - - - - -
28/09:30am 31.1 NNW 4 7 1012.0 - 0.0 - - - - - - -
28/09:00am 30.6 NNW 4 7 1011.6 - 0.0 - - - - - - -
28/08:30am 30.1 NW 3 6 1011.3 - 0.0 - - - - - - -
28/08:00am 29.9 NNW 3 6 1010.8 - 0.0 - - - - - - -
28/07:30am 28.8 NNW 1 2 1010.2 - 0.0 - - - - - - -
28/07:00am 26.6 NW 1 2 1009.8 - 0.0 - - - - - - -
28/06:30am 27.6 WNW 2 4 1009.3 - 0.0 - - - - - - -
28/06:00am 27.7 WNW 1 2 1009.0 - 0.0 - - - - - - -
28/05:30am 28.0 WNW 2 4 1008.6 - 0.0 - - - - - - -
28/05:00am 28.1 W 3 5 1008.6 - 0.0 - - - - - - -
28/04:30am 28.1 WNW 2 5 1008.4 - 0.0 - - - - - - -
28/04:00am 28.3 W 3 5 1008.3 - 0.0 - - - - - - -
28/03:30am 28.4 W 3 6 1008.5 - 0.0 - - - - - - -
28/03:00am 28.5 W 3 5 1008.6 - 0.0 - - - - - - -
28/02:30am 28.4 WNW 2 4 1008.7 - 0.0 - - - - - - -
28/02:00am 28.4 W 3 5 1008.8 - 0.0 - - - - - - -
28/01:30am 28.4 WNW 2 4 1009.2 - 0.0 - - - - - - -
28/01:00am 28.6 WNW 2 4 1009.4 - 0.0 - - - - - - -
28/12:30am 28.5 WNW 3 6 1009.6 - 0.0 - - - - - - -
28/12:00am 28.4 WNW 2 5 1009.9 - 0.0 - - - - - - -
 
Date/Time
CST
Temp
°C
Wind Pressure Rain since
9am
mm
Weather Cloud Vis
km
Sea
Height
m
Swell
Dir  Spd
kts
Gust
kts
hPa Trend Height
m
Period
s
Dir
27/11:30pm 28.6 WNW 2 4 1010.0 - 0.0 - - - - - - -
27/11:00pm 28.6 WNW 2 3 1010.2 - 0.0 - - - - - - -
27/10:30pm 28.8 WNW 2 5 1010.3 - 0.0 - - - - - - -
27/10:00pm 28.9 W 3 5 1010.2 - 0.0 - - - - - - -
27/09:30pm 28.9 W 2 5 1010.1 - 0.0 - - - - - - -
27/09:00pm 29.1 WSW 3 7 1009.7 - 0.0 - - - - - - -
27/08:30pm 29.2 W 4 8 1009.5 - 0.0 - - - - - - -
27/08:00pm 29.3 W 3 7 1009.4 - 0.0 - - - - - - -
27/07:30pm 29.4 W 4 8 1009.0 - 0.0 - - - - - - -
27/07:00pm 29.6 WSW 2 5 1008.9 - 0.0 - - - - - - -
27/06:30pm 29.8 W 3 7 1008.4 - 0.0 - - - - - - -
27/06:00pm 30.5 W 5 8 1008.0 - 0.0 - - - - - - -
27/05:30pm 31.0 W 5 9 1007.8 - 0.0 - - - - - - -
27/05:00pm 31.4 W 5 10 1007.7 - 0.0 - - - - - - -
27/04:30pm 31.7 WNW 6 9 1007.5 - 0.0 - - - - - - -
27/04:00pm 31.9 WNW 5 9 1007.7 - 0.0 - - - - - - -
27/03:30pm 31.9 WNW 5 9 1007.8 - 0.0 - - - - - - -
27/03:00pm 32.4 WNW 5 9 1008.3 - 0.0 - - - - - - -
27/02:30pm 31.9 WNW 5 9 1008.5 - 0.0 - - - - - - -
27/02:00pm 31.6 W 6 9 1008.7 - 0.0 - - - - - - -
27/01:30pm 32.4 W 5 8 1009.1 - 0.0 - - - - - - -
27/01:00pm 31.9 WNW 4 7 1009.6 - 0.0 - - - - - - -
27/12:30pm 32.1 WNW 5 8 1010.3 - 0.0 - - - - - - -
27/12:00pm 31.9 WNW 5 8 1010.9 - 0.0 - - - - - - -
27/11:30am 32.0 NW 6 9 1011.5 - 0.0 - - - - - - -
27/11:00am 31.2 NW 6 9 1012.0 - 0.0 - - - - - - -
27/10:30am 31.6 NNW 5 8 1012.2 - 0.0 - - - - - - -
27/10:00am 31.5 NNW 5 8 1012.5 - 0.0 - - - - - - -
27/09:30am 31.0 NNW 5 8 1012.2 - 0.0 - - - - - - -

Other Formats:

Comma delimited format used in spreadsheet applications
http://www.bom.gov.au/fwo/IDD60701/IDD60701.94116.axf

JavaScript Object Notation format (JSON) in row-major order
http://www.bom.gov.au/fwo/IDD60701/IDD60701.94116.json